createdAt,value
2023-03-12T00:01:17.930Z,48.01
2023-03-12T00:03:44.605Z,48.03
2023-03-12T00:06:12.136Z,48.12
2023-03-12T00:08:39.528Z,48.05
2023-03-12T00:11:10.993Z,48.03
2023-03-12T00:13:37.784Z,47.92
2023-03-12T00:16:06.744Z,47.93
2023-03-12T00:18:33.349Z,47.94
2023-03-12T00:21:00.136Z,47.95
2023-03-12T00:23:26.930Z,47.87
2023-03-12T00:25:53.525Z,47.96
2023-03-12T00:28:20.420Z,47.79
2023-03-12T00:30:47.030Z,47.65
2023-03-12T00:33:13.854Z,47.84
2023-03-12T00:35:40.466Z,47.81
2023-03-12T00:38:07.044Z,47.92
2023-03-12T00:40:33.576Z,47.76
2023-03-12T00:43:00.154Z,47.76
2023-03-12T00:45:26.756Z,47.63
2023-03-12T00:47:53.351Z,47.82
2023-03-12T00:50:19.960Z,47.64
2023-03-12T00:52:46.564Z,47.49
2023-03-12T00:55:13.508Z,47.50
2023-03-12T00:57:40.169Z,47.60
2023-03-12T01:00:10.979Z,47.55
2023-03-12T01:02:39.118Z,47.62
2023-03-12T01:05:08.134Z,47.55
2023-03-12T01:07:36.317Z,47.51
2023-03-12T01:10:03.676Z,47.73
2023-03-12T01:12:30.247Z,47.59
2023-03-12T01:14:56.793Z,47.63
2023-03-12T01:17:23.336Z,47.42
2023-03-12T01:19:49.888Z,47.27
2023-03-12T01:22:16.453Z,47.56
2023-03-12T01:24:43.002Z,47.54
2023-03-12T01:27:09.583Z,47.26
2023-03-12T01:29:36.102Z,47.50
2023-03-12T01:32:02.666Z,47.43
2023-03-12T01:34:30.762Z,47.37
2023-03-12T01:36:57.348Z,47.31
2023-03-12T01:39:25.724Z,47.40
2023-03-12T01:41:52.295Z,47.48
2023-03-12T01:44:18.910Z,47.15
2023-03-12T01:46:46.165Z,47.29
2023-03-12T01:49:34.380Z,47.28
2023-03-12T01:52:03.471Z,47.32
2023-03-12T01:54:33.014Z,47.14
2023-03-12T01:57:01.757Z,47.24
2023-03-12T01:59:36.618Z,46.95
2023-03-12T02:02:04.953Z,47.20
2023-03-12T02:04:33.736Z,47.12
2023-03-12T02:07:07.467Z,47.11
2023-03-12T02:09:37.568Z,47.28
2023-03-12T02:12:04.669Z,47.12
2023-03-12T02:14:31.990Z,47.14
2023-03-12T02:16:58.819Z,47.27
2023-03-12T02:20:01.921Z,46.96
2023-03-12T02:22:29.471Z,47.08
2023-03-12T02:25:07.732Z,46.98
2023-03-12T02:27:37.342Z,47.12
2023-03-12T02:30:05.154Z,47.09
2023-03-12T02:32:38.398Z,47.00
2023-03-12T02:35:06.764Z,47.10
2023-03-12T02:37:33.441Z,47.01
2023-03-12T02:40:15.569Z,46.51
2023-03-12T02:42:42.153Z,47.04
2023-03-12T02:45:08.997Z,46.90
2023-03-12T02:47:35.557Z,46.98
2023-03-12T02:50:02.134Z,46.92
2023-03-12T02:52:30.568Z,46.80
2023-03-12T02:54:57.140Z,47.10
2023-03-12T02:57:23.677Z,47.03
2023-03-12T02:59:50.188Z,46.79
2023-03-12T03:02:16.754Z,46.96
2023-03-12T03:04:43.341Z,46.91
2023-03-12T03:07:10.060Z,46.85
2023-03-12T03:09:36.636Z,46.68
2023-03-12T03:12:03.341Z,46.84
2023-03-12T03:14:29.916Z,46.84
2023-03-12T03:16:56.497Z,46.65
2023-03-12T03:19:23.196Z,46.63
2023-03-12T03:21:49.804Z,46.57
2023-03-12T03:24:16.892Z,46.80
2023-03-12T03:26:44.206Z,46.85
2023-03-12T03:29:10.787Z,46.66
2023-03-12T03:31:37.343Z,46.54
2023-03-12T03:34:04.104Z,46.44
2023-03-12T03:36:30.729Z,46.73
2023-03-12T03:38:57.296Z,46.56
2023-03-12T03:41:23.839Z,46.59
2023-03-12T03:43:50.441Z,46.42
2023-03-12T03:46:17.066Z,46.42
2023-03-12T03:48:43.700Z,46.49
2023-03-12T03:51:11.611Z,46.79
2023-03-12T03:53:38.317Z,46.63
2023-03-12T03:56:09.862Z,46.44
2023-03-12T03:58:36.529Z,46.53
2023-03-12T04:01:03.480Z,46.47
2023-03-12T04:03:30.160Z,46.75
2023-03-12T04:05:59.823Z,46.41
2023-03-12T04:08:26.969Z,46.53
2023-03-12T04:10:53.556Z,46.42
2023-03-12T04:13:20.745Z,46.26
2023-03-12T04:15:53.471Z,46.08
2023-03-12T04:18:20.384Z,46.52
2023-03-12T04:20:46.990Z,46.52
2023-03-12T04:23:13.586Z,46.32
2023-03-12T04:25:40.171Z,46.56
2023-03-12T04:28:06.810Z,45.74
2023-03-12T04:30:33.626Z,46.37
2023-03-12T04:33:00.240Z,46.10
2023-03-12T04:35:26.819Z,46.23
2023-03-12T04:37:53.377Z,46.16
2023-03-12T04:40:20.029Z,46.02
2023-03-12T04:42:47.314Z,46.01
2023-03-12T04:45:14.408Z,45.98
2023-03-12T04:47:41.195Z,45.91
2023-03-12T04:50:08.578Z,46.00
2023-03-12T04:52:35.178Z,45.89
2023-03-12T04:55:02.146Z,45.75
2023-03-12T04:57:28.782Z,45.61
2023-03-12T04:59:55.445Z,45.66
2023-03-12T05:02:22.005Z,45.81
2023-03-12T05:04:48.560Z,45.97
2023-03-12T05:07:15.120Z,45.91
2023-03-12T05:09:41.672Z,46.02
2023-03-12T05:12:08.537Z,45.59
2023-03-12T05:14:35.120Z,46.01
2023-03-12T05:17:01.675Z,46.06
2023-03-12T05:19:28.250Z,45.84
2023-03-12T05:21:54.805Z,45.98
2023-03-12T05:24:22.548Z,45.88
2023-03-12T05:26:49.133Z,45.89
2023-03-12T05:29:15.718Z,46.13
2023-03-12T05:31:42.357Z,45.73
2023-03-12T05:34:12.238Z,45.59
2023-03-12T05:36:39.073Z,45.92
2023-03-12T05:39:05.923Z,46.09
2023-03-12T05:41:32.483Z,46.12
2023-03-12T05:43:59.583Z,45.89
2023-03-12T05:46:27.698Z,45.90
2023-03-12T05:48:54.528Z,46.11
2023-03-12T05:51:21.679Z,46.16
2023-03-12T05:53:48.359Z,46.16
2023-03-12T05:56:17.776Z,46.07
2023-03-12T05:58:44.367Z,46.14
2023-03-12T06:01:15.612Z,46.14
2023-03-12T06:03:43.126Z,46.10
2023-03-12T06:06:10.769Z,46.05
2023-03-12T06:08:37.482Z,46.28
2023-03-12T06:11:04.200Z,46.23
2023-03-12T06:13:31.162Z,46.26
2023-03-12T06:16:08.804Z,45.79
2023-03-12T06:18:36.430Z,46.33
2023-03-12T06:21:22.059Z,45.81
2023-03-12T06:23:49.906Z,46.19
2023-03-12T06:26:16.980Z,46.12
2023-03-12T06:28:44.946Z,46.17
2023-03-12T06:31:11.843Z,46.19
2023-03-12T06:33:38.858Z,46.26
2023-03-12T06:36:07.649Z,46.35
2023-03-12T06:38:35.144Z,46.69
2023-03-12T06:41:02.871Z,46.56
2023-03-12T06:43:31.328Z,46.81
2023-03-12T06:45:59.671Z,46.74
2023-03-12T06:48:27.902Z,46.85
2023-03-12T06:50:54.573Z,46.50
2023-03-12T06:53:21.342Z,46.92
2023-03-12T06:55:50.720Z,46.73
2023-03-12T06:58:17.390Z,46.83
2023-03-12T07:00:44.012Z,46.90
2023-03-12T07:03:10.592Z,46.94
2023-03-12T07:05:37.166Z,46.95
2023-03-12T07:08:03.820Z,46.99
2023-03-12T07:10:31.574Z,47.02
2023-03-12T07:12:58.200Z,47.07
2023-03-12T07:15:24.760Z,47.01
2023-03-12T07:17:51.330Z,47.00
2023-03-12T07:20:18.097Z,46.99
2023-03-12T07:22:44.947Z,47.05
2023-03-12T07:25:11.885Z,47.02
2023-03-12T07:27:38.430Z,47.15
2023-03-12T07:30:05.750Z,47.43
2023-03-12T07:32:33.626Z,47.01
2023-03-12T07:35:00.572Z,47.04
2023-03-12T07:37:27.279Z,47.15
2023-03-12T07:39:54.786Z,47.17
2023-03-12T07:42:21.759Z,47.01
2023-03-12T07:44:48.591Z,47.19
2023-03-12T07:47:23.559Z,47.16
2023-03-12T07:49:50.930Z,47.12
2023-03-12T07:52:19.449Z,47.35
2023-03-12T07:54:46.246Z,47.17
2023-03-12T07:57:12.947Z,47.33
2023-03-12T07:59:39.681Z,47.43
2023-03-12T08:02:06.857Z,47.39
2023-03-12T08:04:33.518Z,47.41
2023-03-12T08:07:00.233Z,47.42
2023-03-12T08:09:26.808Z,47.35
2023-03-12T08:11:53.404Z,47.38
2023-03-12T08:14:20.051Z,47.30
2023-03-12T08:16:46.844Z,47.48
2023-03-12T08:19:13.393Z,47.58
2023-03-12T08:21:39.948Z,47.50
2023-03-12T08:24:06.870Z,47.45
2023-03-12T08:26:33.604Z,47.43
2023-03-12T08:29:00.469Z,47.38
2023-03-12T08:31:28.895Z,47.47
2023-03-12T08:33:55.488Z,47.35
2023-03-12T08:36:22.673Z,47.23
2023-03-12T08:38:49.387Z,47.29
2023-03-12T08:41:15.965Z,47.01
2023-03-12T08:43:42.563Z,46.93
2023-03-12T08:46:11.825Z,47.02
2023-03-12T08:48:39.597Z,47.19
2023-03-12T08:51:07.608Z,47.06
2023-03-12T08:53:36.236Z,46.97
2023-03-12T08:56:04.108Z,47.20
2023-03-12T08:58:30.926Z,47.32
2023-03-12T09:00:57.897Z,47.10
2023-03-12T09:03:25.079Z,47.09
2023-03-12T09:06:01.745Z,47.13
2023-03-12T09:08:28.336Z,47.25
2023-03-12T09:10:54.864Z,47.35
2023-03-12T09:13:21.428Z,47.16
2023-03-12T09:15:47.967Z,47.42
2023-03-12T09:18:14.592Z,47.39
2023-03-12T09:20:43.079Z,47.57
2023-03-12T09:23:09.751Z,47.51
2023-03-12T09:25:36.332Z,47.70
2023-03-12T09:28:02.880Z,47.61
2023-03-12T09:30:30.692Z,47.82
2023-03-12T09:32:57.449Z,47.68
2023-03-12T09:35:24.034Z,47.65
2023-03-12T09:37:51.584Z,48.05
2023-03-12T09:40:22.850Z,47.92
2023-03-12T09:42:59.433Z,48.06
2023-03-12T09:45:33.051Z,47.98
2023-03-12T09:48:04.429Z,48.04
2023-03-12T09:50:40.556Z,48.20
2023-03-12T09:53:28.660Z,48.31
2023-03-12T09:55:57.557Z,48.45
2023-03-12T09:58:36.208Z,48.21
2023-03-12T10:01:17.330Z,48.74
2023-03-12T10:03:50.004Z,48.58
2023-03-12T10:06:20.452Z,48.88
2023-03-12T10:09:02.344Z,48.58
2023-03-12T10:11:42.886Z,48.72
2023-03-12T10:14:34.176Z,48.94
2023-03-12T10:17:42.264Z,49.14
2023-03-12T10:20:41.897Z,49.33
2023-03-12T10:23:21.593Z,49.46
2023-03-12T10:26:00.240Z,49.59
2023-03-12T10:28:37.690Z,49.70
2023-03-12T10:31:16.065Z,50.01
2023-03-12T10:33:52.307Z,50.09
2023-03-12T10:36:21.155Z,50.14
2023-03-12T10:38:49.435Z,50.24
2023-03-12T10:41:19.031Z,50.37
2023-03-12T10:43:45.834Z,50.77
2023-03-12T10:46:15.435Z,50.80
2023-03-12T10:48:43.276Z,50.76
2023-03-12T10:51:12.485Z,50.75
2023-03-12T10:53:40.176Z,50.82
2023-03-12T10:56:06.739Z,50.50
2023-03-12T10:58:40.150Z,50.85
2023-03-12T11:01:19.259Z,50.62
2023-03-12T11:03:46.646Z,50.33
2023-03-12T11:06:30.249Z,50.52
2023-03-12T11:09:16.334Z,50.31
2023-03-12T11:11:45.302Z,50.09
2023-03-12T11:14:19.890Z,50.26
2023-03-12T11:16:46.840Z,50.29
2023-03-12T11:19:25.726Z,49.98
2023-03-12T11:22:03.453Z,50.24
2023-03-12T11:24:30.694Z,49.79
2023-03-12T11:27:05.088Z,50.25
2023-03-12T11:29:40.117Z,50.13
2023-03-12T11:32:15.095Z,50.19
2023-03-12T11:34:42.179Z,49.63
2023-03-12T11:37:27.651Z,49.88
2023-03-12T11:40:15.367Z,49.76
2023-03-12T11:42:57.055Z,49.66
2023-03-12T11:45:26.348Z,49.54
2023-03-12T11:48:05.076Z,49.71
2023-03-12T11:51:06.885Z,49.57
2023-03-12T11:53:51.684Z,49.62
2023-03-12T11:56:29.387Z,49.51
2023-03-12T11:58:59.907Z,49.70
2023-03-12T12:01:26.416Z,49.57
2023-03-12T12:04:26.309Z,49.44
2023-03-12T12:07:04.895Z,49.69
2023-03-12T12:09:57.779Z,49.53
2023-03-12T12:12:39.522Z,49.63
2023-03-12T12:15:23.210Z,49.54
2023-03-12T12:17:57.265Z,49.49
2023-03-12T12:20:42.292Z,49.81
2023-03-12T12:23:26.955Z,49.57
2023-03-12T12:26:05.628Z,50.12
2023-03-12T12:28:38.368Z,49.90
2023-03-12T12:31:31.483Z,49.91
2023-03-12T12:34:02.007Z,49.68
2023-03-12T12:36:33.744Z,49.98
2023-03-12T12:39:06.903Z,50.12
2023-03-12T12:41:38.614Z,49.83
2023-03-12T12:44:13.404Z,49.97
2023-03-12T12:46:45.302Z,49.83
2023-03-12T12:49:50.901Z,50.03
2023-03-12T12:52:22.087Z,49.84
2023-03-12T12:55:03.731Z,50.01
2023-03-12T12:57:56.985Z,49.97
2023-03-12T13:00:41.900Z,49.99
2023-03-12T13:03:17.502Z,50.11
2023-03-12T13:05:56.988Z,49.91
2023-03-12T13:08:44.911Z,50.16
2023-03-12T13:11:20.261Z,50.09
2023-03-12T13:13:50.262Z,50.16
2023-03-12T13:16:36.587Z,50.03
2023-03-12T13:19:06.537Z,50.26
2023-03-12T13:21:39.175Z,50.19
2023-03-12T13:24:18.539Z,50.18
2023-03-12T13:27:18.910Z,50.02
2023-03-12T13:29:46.081Z,50.33
2023-03-12T13:32:34.790Z,50.10
2023-03-12T13:35:13.401Z,50.18
2023-03-12T13:37:52.281Z,50.19
2023-03-12T13:40:52.021Z,50.19
2023-03-12T13:43:51.993Z,50.31
2023-03-12T13:46:18.481Z,50.15
2023-03-12T13:48:47.773Z,50.22
2023-03-12T13:51:20.694Z,50.22
2023-03-12T13:53:52.304Z,50.12
2023-03-12T13:56:21.297Z,50.06
2023-03-12T13:59:03.696Z,50.40
2023-03-12T14:01:36.841Z,50.75
2023-03-12T14:04:12.398Z,51.83
2023-03-12T14:07:31.179Z,51.77
2023-03-12T14:10:18.266Z,51.80
2023-03-12T14:13:19.893Z,51.53
2023-03-12T14:16:00.032Z,51.50
2023-03-12T14:18:30.368Z,51.43
2023-03-12T14:21:00.616Z,51.22
2023-03-12T14:23:34.141Z,51.27
2023-03-12T14:26:04.146Z,51.21
2023-03-12T14:28:36.051Z,51.18
2023-03-12T14:31:16.997Z,51.44
2023-03-12T14:34:11.685Z,51.32
2023-03-12T14:36:46.928Z,51.39
2023-03-12T14:39:37.901Z,51.40
2023-03-12T14:42:07.898Z,51.44
2023-03-12T14:44:37.418Z,51.22
2023-03-12T14:47:11.571Z,51.39
2023-03-12T14:49:45.874Z,51.39
2023-03-12T14:52:23.120Z,51.59
2023-03-12T14:55:01.086Z,51.47
2023-03-12T14:57:28.001Z,51.57
2023-03-12T14:59:57.052Z,51.26
2023-03-12T15:02:25.055Z,51.52
2023-03-12T15:04:56.218Z,51.51
2023-03-12T15:07:38.566Z,51.68
2023-03-12T15:10:20.104Z,51.67
2023-03-12T15:12:47.082Z,51.24
2023-03-12T15:15:39.195Z,51.66
2023-03-12T15:18:16.170Z,51.58
2023-03-12T15:20:43.350Z,51.57
2023-03-12T15:23:13.499Z,51.32
2023-03-12T15:25:40.853Z,51.49
2023-03-12T15:28:10.540Z,51.45
2023-03-12T15:30:39.030Z,51.60
2023-03-12T15:33:17.844Z,51.70
2023-03-12T15:35:59.879Z,51.92
2023-03-12T15:38:26.891Z,51.65
2023-03-12T15:40:58.533Z,51.77
2023-03-12T15:43:26.436Z,51.84
2023-03-12T15:46:01.290Z,52.86
2023-03-12T15:48:40.447Z,52.85
2023-03-12T15:51:16.381Z,53.20
2023-03-12T15:53:42.813Z,53.23
2023-03-12T15:56:09.563Z,52.97
2023-03-12T15:58:41.627Z,53.07
2023-03-12T16:01:13.608Z,52.65
2023-03-12T16:03:42.451Z,52.58
2023-03-12T16:06:15.137Z,53.03
2023-03-12T16:08:46.534Z,52.60
2023-03-12T16:11:17.592Z,52.78
2023-03-12T16:13:45.817Z,52.51
2023-03-12T16:16:13.863Z,52.37
2023-03-12T16:18:41.755Z,52.61
2023-03-12T16:21:08.898Z,52.44
2023-03-12T16:23:35.665Z,52.57
2023-03-12T16:26:04.624Z,52.30
2023-03-12T16:28:33.562Z,52.47
2023-03-12T16:31:00.131Z,52.45
2023-03-12T16:33:26.722Z,52.62
2023-03-12T16:35:53.405Z,52.38
2023-03-12T16:38:20.015Z,52.44
2023-03-12T16:40:49.567Z,52.38
2023-03-12T16:43:21.719Z,52.73
2023-03-12T16:45:50.123Z,52.31
2023-03-12T16:48:20.103Z,52.40
2023-03-12T16:50:49.977Z,52.62
2023-03-12T16:53:17.019Z,52.42
2023-03-12T16:55:55.728Z,52.93
2023-03-12T16:58:24.061Z,52.58
2023-03-12T17:00:52.869Z,52.61
2023-03-12T17:03:35.509Z,53.05
2023-03-12T17:06:03.261Z,52.44
2023-03-12T17:08:29.783Z,53.20
2023-03-12T17:10:57.556Z,52.42
2023-03-12T17:13:28.028Z,52.70
2023-03-12T17:15:55.771Z,52.81
2023-03-12T17:18:22.870Z,52.57
2023-03-12T17:20:51.688Z,52.19
2023-03-12T17:23:19.009Z,52.52
2023-03-12T17:25:45.866Z,52.75
2023-03-12T17:28:14.314Z,52.18
2023-03-12T17:30:41.179Z,52.23
2023-03-12T17:33:11.938Z,52.17
2023-03-12T17:35:39.851Z,52.07
2023-03-12T17:38:06.846Z,52.34
2023-03-12T17:40:33.896Z,52.70
2023-03-12T17:43:00.404Z,52.34
2023-03-12T17:45:27.491Z,52.21
2023-03-12T17:47:54.070Z,53.21
2023-03-12T17:50:20.694Z,52.63
2023-03-12T17:52:47.257Z,52.55
2023-03-12T17:55:13.985Z,53.08
2023-03-12T17:57:40.814Z,52.66
2023-03-12T18:00:12.681Z,52.91
2023-03-12T18:02:40.930Z,53.32
2023-03-12T18:05:11.579Z,53.39
2023-03-12T18:07:38.673Z,53.00
2023-03-12T18:10:07.690Z,53.08
2023-03-12T18:12:34.963Z,53.41
2023-03-12T18:15:01.585Z,53.44
2023-03-12T18:17:28.125Z,53.38
2023-03-12T18:19:54.692Z,53.38
2023-03-12T18:22:21.290Z,53.37
2023-03-12T18:24:47.998Z,53.26
2023-03-12T18:27:14.572Z,53.35
2023-03-12T18:29:41.321Z,53.62
2023-03-12T18:32:08.626Z,53.81
2023-03-12T18:34:35.510Z,53.68
2023-03-12T18:37:02.072Z,53.81
2023-03-12T18:39:28.685Z,53.55
2023-03-12T18:41:56.035Z,53.87
2023-03-12T18:44:22.930Z,53.36
2023-03-12T18:46:51.819Z,53.28
2023-03-12T18:49:18.618Z,53.47
2023-03-12T18:51:45.454Z,52.83
2023-03-12T18:54:12.856Z,52.64
2023-03-12T18:56:40.933Z,53.49
2023-03-12T18:59:09.886Z,53.62
2023-03-12T19:01:37.168Z,53.29
2023-03-12T19:04:03.970Z,52.91
2023-03-12T19:06:40.821Z,53.80
2023-03-12T19:09:14.955Z,53.31
2023-03-12T19:11:41.651Z,52.97
2023-03-12T19:14:08.252Z,53.26
2023-03-12T19:16:34.960Z,53.63
2023-03-12T19:19:01.609Z,53.74
2023-03-12T19:21:28.214Z,53.68
2023-03-12T19:23:54.833Z,54.05
2023-03-12T19:26:21.459Z,53.27
2023-03-12T19:28:48.043Z,53.84
2023-03-12T19:31:15.360Z,53.56
2023-03-12T19:33:42.940Z,53.41
2023-03-12T19:36:09.713Z,53.33
2023-03-12T19:38:36.505Z,53.88
2023-03-12T19:41:03.077Z,53.13
2023-03-12T19:43:29.679Z,53.31
2023-03-12T19:45:56.366Z,54.03
2023-03-12T19:48:25.330Z,54.61
2023-03-12T19:50:53.929Z,54.10
2023-03-12T19:53:20.533Z,54.62
2023-03-12T19:55:51.122Z,54.27
2023-03-12T19:58:17.779Z,54.12
2023-03-12T20:00:44.717Z,53.97
2023-03-12T20:03:11.324Z,53.95
2023-03-12T20:05:37.932Z,53.91
2023-03-12T20:08:04.624Z,53.80
2023-03-12T20:10:32.374Z,54.10
2023-03-12T20:12:59.294Z,54.11
2023-03-12T20:15:26.421Z,53.89
2023-03-12T20:17:54.879Z,53.77
2023-03-12T20:20:21.504Z,53.60
2023-03-12T20:22:48.067Z,53.66
2023-03-12T20:25:14.676Z,54.05
2023-03-12T20:27:41.231Z,53.56
2023-03-12T20:30:09.410Z,53.74
2023-03-12T20:32:36.195Z,53.78
2023-03-12T20:35:02.840Z,53.66
2023-03-12T20:37:29.395Z,53.74
2023-03-12T20:39:55.980Z,53.85
2023-03-12T20:42:22.599Z,53.62
2023-03-12T20:44:49.180Z,53.55
2023-03-12T20:47:15.792Z,53.94
2023-03-12T20:49:42.316Z,54.04
2023-03-12T20:52:08.827Z,53.65
2023-03-12T20:54:35.365Z,53.59
2023-03-12T20:57:01.926Z,53.43
2023-03-12T20:59:28.528Z,53.41
2023-03-12T21:01:55.317Z,53.88
2023-03-12T21:04:21.889Z,53.83
2023-03-12T21:06:51.622Z,53.41
2023-03-12T21:09:18.652Z,53.71
2023-03-12T21:11:45.243Z,53.45
2023-03-12T21:14:11.763Z,53.62
2023-03-12T21:16:38.373Z,53.44
2023-03-12T21:19:04.994Z,53.70
2023-03-12T21:21:32.231Z,53.34
2023-03-12T21:23:58.754Z,53.49
2023-03-12T21:26:25.339Z,53.60
2023-03-12T21:28:51.920Z,53.48
2023-03-12T21:31:18.588Z,53.40
2023-03-12T21:33:45.458Z,53.64
2023-03-12T21:36:13.786Z,53.38
2023-03-12T21:38:42.685Z,53.62
2023-03-12T21:41:15.685Z,53.47
2023-03-12T21:43:43.828Z,53.22
2023-03-12T21:46:16.039Z,53.69
2023-03-12T21:48:47.663Z,53.96
2023-03-12T21:51:16.255Z,53.65
2023-03-12T21:53:43.205Z,53.31
2023-03-12T21:56:10.062Z,53.33
2023-03-12T21:58:37.022Z,53.11
2023-03-12T22:01:15.750Z,53.92
2023-03-12T22:03:43.893Z,54.09
2023-03-12T22:06:11.476Z,53.82
2023-03-12T22:08:38.859Z,53.86
2023-03-12T22:11:07.456Z,54.02
2023-03-12T22:13:34.446Z,53.76
2023-03-12T22:16:03.731Z,54.45
2023-03-12T22:18:30.478Z,53.91
2023-03-12T22:21:03.285Z,53.62
2023-03-12T22:23:30.283Z,53.76
2023-03-12T22:26:01.249Z,54.07
2023-03-12T22:28:27.801Z,53.62
2023-03-12T22:31:00.590Z,53.96
2023-03-12T22:33:28.381Z,53.35
2023-03-12T22:35:55.213Z,53.35
2023-03-12T22:38:22.818Z,53.28
2023-03-12T22:40:49.911Z,53.22
2023-03-12T22:43:16.526Z,54.22
2023-03-12T22:45:43.572Z,53.73
2023-03-12T22:48:10.205Z,53.37
2023-03-12T22:50:36.825Z,53.22
2023-03-12T22:53:03.632Z,53.49
2023-03-12T22:55:30.225Z,53.19
2023-03-12T22:57:56.805Z,53.23
2023-03-12T23:00:23.618Z,53.90
2023-03-12T23:02:50.380Z,53.41
2023-03-12T23:05:17.399Z,53.21
2023-03-12T23:07:44.036Z,53.57
2023-03-12T23:10:10.914Z,53.24
2023-03-12T23:12:37.504Z,53.33
2023-03-12T23:15:04.283Z,53.53
2023-03-12T23:17:30.809Z,53.73
2023-03-12T23:19:57.369Z,53.70
2023-03-12T23:22:23.927Z,53.67
2023-03-12T23:24:50.537Z,54.48
2023-03-12T23:27:17.150Z,53.97
2023-03-12T23:29:43.732Z,53.70
2023-03-12T23:32:10.262Z,53.60
2023-03-12T23:34:36.806Z,53.72
2023-03-12T23:37:03.572Z,53.81
2023-03-12T23:39:30.970Z,53.66
2023-03-12T23:41:57.912Z,53.72
2023-03-12T23:44:24.915Z,53.75
2023-03-12T23:46:51.576Z,53.82
2023-03-12T23:49:18.310Z,53.66
2023-03-12T23:51:44.960Z,54.56
2023-03-12T23:54:11.505Z,54.08
2023-03-12T23:56:39.868Z,53.83
2023-03-12T23:59:08.754Z,54.32
